Time;durP1;ratioP1;P1;durP2;ratioP2;P2;SDS_P1;SDS_P2;PMS_P1;PMS_P2;Temp;Humidity;BMP_temperature;BMP_pressure;BME280_temperature;BME280_humidity;BME280_pressure;Samples;Min_cycle;Max_cycle;Signal;HPM_P1;HPM_P2
2023/09/19 00:00:37;;;;;;;15.98;7.00;;;23.30;99.50;;;;;;6186926;23;20048;-86
2023/09/19 00:03:04;;;;;;;9.68;6.50;;;23.30;99.60;;;;;;6159650;23;20418;-87
2023/09/19 00:05:34;;;;;;;15.65;8.15;;;23.30;99.40;;;;;;6159935;23;20092;-84
2023/09/19 00:08:01;;;;;;;15.35;8.57;;;23.30;99.60;;;;;;6160372;23;20004;-85
2023/09/19 00:10:30;;;;;;;12.95;8.10;;;23.30;99.40;;;;;;6160023;23;20005;-87
2023/09/19 00:12:58;;;;;;;16.13;7.10;;;23.20;99.20;;;;;;6160411;23;20135;-85
2023/09/19 00:15:30;;;;;;;13.65;6.65;;;23.20;99.20;;;;;;6159746;23;20135;-84
2023/09/19 00:17:56;;;;;;;9.73;5.68;;;23.20;99.20;;;;;;6159996;23;20008;-86
2023/09/19 00:20:25;;;;;;;15.25;6.72;;;23.20;98.90;;;;;;6160087;23;20005;-84
2023/09/19 00:22:51;;;;;;;10.02;5.72;;;23.20;99.10;;;;;;6160474;23;20327;-85
2023/09/19 00:25:18;;;;;;;9.35;6.43;;;23.20;98.90;;;;;;6186090;23;20085;-86
2023/09/19 00:27:44;;;;;;;9.65;5.63;;;23.20;99.00;;;;;;6160195;23;20024;-83
2023/09/19 00:30:19;;;;;;;11.73;6.45;;;23.20;98.70;;;;;;6160093;23;20008;-86
2023/09/19 00:32:47;;;;;;;10.95;5.68;;;23.20;98.60;;;;;;6160172;23;20417;-83
2023/09/19 00:35:16;;;;;;;14.35;5.55;;;23.20;98.60;;;;;;6159302;23;20002;-84
2023/09/19 00:37:42;;;;;;;11.13;6.60;;;23.20;98.50;;;;;;6158997;23;20001;-84
2023/09/19 00:40:12;;;;;;;13.43;6.63;;;23.20;98.70;;;;;;6159444;23;20414;-83
2023/09/19 00:42:43;;;;;;;14.13;6.03;;;23.20;98.70;;;;;;6160040;23;20005;-85
2023/09/19 00:45:11;;;;;;;9.30;5.40;;;23.20;98.90;;;;;;6159510;23;20059;-83
2023/09/19 00:50:00;;;;;;;15.35;5.72;;;23.20;99.00;;;;;;5111544;27;20331;-85
2023/09/19 00:52:26;;;;;;;9.60;5.72;;;23.20;99.40;;;;;;5074043;28;20051;-86
2023/09/19 00:54:52;;;;;;;9.30;5.90;;;23.20;99.90;;;;;;5072457;28;20039;-85
2023/09/19 00:57:19;;;;;;;12.93;5.90;;;23.10;99.90;;;;;;5065680;28;20029;-86
2023/09/19 00:59:48;;;;;;;10.80;6.22;;;23.10;99.90;;;;;;5077293;28;20070;-84
2023/09/19 01:02:16;;;;;;;11.15;5.72;;;23.00;99.90;;;;;;5068755;28;20111;-85
2023/09/19 01:04:42;;;;;;;13.05;5.90;;;23.00;99.90;;;;;;5077630;28;20052;-86
2023/09/19 01:07:09;;;;;;;12.10;5.47;;;23.00;99.90;;;;;;5074802;28;20027;-84
2023/09/19 01:09:35;;;;;;;17.17;6.65;;;23.00;99.90;;;;;;5072663;28;20028;-83
2023/09/19 01:12:05;;;;;;;11.02;6.20;;;22.90;99.90;;;;;;5073148;28;20458;-83
2023/09/19 01:14:55;;;;;;;10.25;6.07;;;22.90;99.90;;;;;;5094303;28;20081;-84
2023/09/19 01:17:30;;;;;;;16.30;5.88;;;23.00;99.90;;;;;;5092387;28;20024;-84
2023/09/19 01:20:15;;;;;;;9.55;6.15;;;23.00;99.90;;;;;;5072757;28;20116;-83
2023/09/19 01:22:56;;;;;;;9.80;5.35;;;22.90;99.90;;;;;;5071861;28;20054;-83
2023/09/19 01:26:10;;;;;;;12.05;6.05;;;22.90;99.90;;;;;;5074461;28;20033;-83
2023/09/19 01:28:47;;;;;;;11.30;5.60;;;22.90;99.90;;;;;;5010748;28;20145;-84
2023/09/19 01:31:14;;;;;;;11.70;5.72;;;22.90;99.90;;;;;;5039460;28;20045;-85
2023/09/19 01:34:01;;;;;;;13.35;5.70;;;22.90;99.90;;;;;;5022051;28;20030;-84
2023/09/19 01:36:36;;;;;;;12.82;5.25;;;22.90;99.90;;;;;;5038554;28;20072;-84
2023/09/19 01:39:10;;;;;;;10.85;6.22;;;22.90;99.90;;;;;;5035361;28;20045;-84
2023/09/19 01:41:45;;;;;;;7.50;5.20;;;22.80;99.90;;;;;;5026970;28;20099;-85
2023/09/19 01:44:22;;;;;;;11.65;5.97;;;22.80;99.90;;;;;;5019007;28;20161;-86
2023/09/19 01:46:47;;;;;;;10.32;5.40;;;22.80;99.90;;;;;;5023554;28;20037;-83
2023/09/19 01:49:28;;;;;;;9.38;5.30;;;22.70;99.90;;;;;;5041865;28;20442;-83
2023/09/19 01:52:16;;;;;;;10.27;4.97;;;22.70;99.90;;;;;;5032780;28;20049;-83
2023/09/19 01:55:00;;;;;;;11.70;5.43;;;22.70;99.90;;;;;;5055992;28;20033;-83
2023/09/19 01:57:35;;;;;;;11.35;5.30;;;22.70;99.90;;;;;;5050235;28;20095;-84
2023/09/19 02:00:06;;;;;;;12.35;5.80;;;22.70;99.90;;;;;;5041230;28;20069;-84
2023/09/19 02:02:53;;;;;;;8.70;5.95;;;22.70;99.90;;;;;;5037740;28;20025;-81
2023/09/19 02:05:25;;;;;;;9.15;5.63;;;22.70;99.90;;;;;;5078590;28;20035;-85
2023/09/19 02:07:55;;;;;;;9.93;5.65;;;22.70;99.90;;;;;;5077329;28;20040;-83
2023/09/19 02:10:22;;;;;;;8.32;5.90;;;22.60;99.90;;;;;;5074241;28;20385;-84
2023/09/19 02:12:48;;;;;;;13.85;5.55;;;22.70;99.90;;;;;;5078856;28;20025;-84
2023/09/19 02:15:15;;;;;;;12.90;5.68;;;22.60;99.90;;;;;;5085265;28;20386;-85
2023/09/19 02:17:42;;;;;;;9.57;5.60;;;22.60;99.90;;;;;;5094924;28;20028;-84
2023/09/19 02:20:10;;;;;;;8.77;5.40;;;22.60;99.90;;;;;;5079951;28;20030;-84
2023/09/19 02:22:36;;;;;;;11.38;6.60;;;22.60;99.90;;;;;;5095010;28;20034;-83
2023/09/19 02:25:04;;;;;;;11.43;5.88;;;22.60;99.90;;;;;;5095035;28;20424;-82
2023/09/19 02:27:30;;;;;;;11.27;5.60;;;22.60;99.90;;;;;;5096158;28;20054;-84
2023/09/19 02:29:56;;;;;;;12.05;5.47;;;22.60;99.90;;;;;;5094708;28;20128;-82
2023/09/19 02:32:23;;;;;;;11.32;6.13;;;22.50;99.90;;;;;;5087752;28;20081;-85
2023/09/19 02:34:51;;;;;;;10.43;6.18;;;22.50;99.90;;;;;;5094673;28;20083;-83
2023/09/19 02:37:18;;;;;;;11.43;6.00;;;22.60;99.90;;;;;;5094470;28;20028;-84
2023/09/19 02:39:44;;;;;;;8.95;5.78;;;22.60;99.90;;;;;;5094725;28;20123;-83
2023/09/19 02:42:10;;;;;;;9.73;4.97;;;22.50;99.90;;;;;;5094620;28;20115;-84
2023/09/19 02:44:37;;;;;;;12.02;6.20;;;22.50;99.90;;;;;;5078065;28;20066;-85
2023/09/19 02:47:04;;;;;;;11.82;5.88;;;22.50;99.90;;;;;;5074823;28;20489;-82
2023/09/19 02:49:29;;;;;;;9.73;5.38;;;22.50;99.90;;;;;;5073250;28;20132;-85
2023/09/19 02:51:55;;;;;;;10.65;6.28;;;22.50;99.90;;;;;;5078594;28;20158;-84
2023/09/19 02:54:21;;;;;;;11.20;6.13;;;22.60;99.90;;;;;;5075876;28;20028;-84
2023/09/19 02:56:47;;;;;;;11.40;5.90;;;22.60;99.90;;;;;;5070644;28;20029;-83
2023/09/19 02:59:14;;;;;;;10.23;5.10;;;22.60;99.90;;;;;;5072454;28;20475;-85
2023/09/19 03:01:42;;;;;;;9.57;5.82;;;22.60;99.90;;;;;;5072954;28;20047;-82
2023/09/19 03:04:11;;;;;;;12.93;5.60;;;22.50;99.90;;;;;;5087889;28;20021;-85
2023/09/19 03:06:38;;;;;;;12.40;5.63;;;22.50;99.90;;;;;;5072924;28;20025;-83
2023/09/19 03:09:12;;;;;;;10.75;5.15;;;22.50;99.90;;;;;;5077624;28;20394;-82
2023/09/19 03:11:40;;;;;;;10.35;5.85;;;22.50;99.90;;;;;;5076860;28;20027;-84
2023/09/19 03:14:06;;;;;;;10.07;5.88;;;22.50;99.90;;;;;;5075210;28;20020;-85
2023/09/19 03:16:33;;;;;;;12.05;5.03;;;22.50;99.90;;;;;;5074086;28;20021;-84
2023/09/19 03:18:59;;;;;;;11.40;6.18;;;22.60;99.90;;;;;;5073474;28;20387;-83
2023/09/19 03:21:25;;;;;;;8.18;4.70;;;22.60;99.90;;;;;;5070629;28;20045;-84
2023/09/19 03:23:51;;;;;;;8.65;5.13;;;22.60;99.90;;;;;;5073621;28;20055;-84
2023/09/19 03:26:17;;;;;;;10.50;6.63;;;22.60;99.90;;;;;;5073125;28;20078;-82
2023/09/19 03:28:45;;;;;;;10.00;5.65;;;22.60;99.90;;;;;;5089467;28;20036;-82
2023/09/19 03:31:11;;;;;;;15.95;6.18;;;22.50;99.90;;;;;;5093677;28;20417;-83
2023/09/19 03:33:37;;;;;;;8.77;5.78;;;22.60;99.90;;;;;;5074303;28;20029;-82
2023/09/19 03:36:07;;;;;;;13.98;5.72;;;22.60;99.90;;;;;;5073205;28;20459;-84
2023/09/19 03:38:36;;;;;;;9.02;5.70;;;22.60;99.90;;;;;;5072786;28;20107;-82
2023/09/19 03:41:02;;;;;;;9.77;5.60;;;22.60;99.90;;;;;;5072702;28;20033;-82
2023/09/19 03:43:28;;;;;;;12.48;7.13;;;22.60;99.90;;;;;;5072881;28;20052;-83
2023/09/19 03:45:54;;;;;;;17.02;6.97;;;22.60;99.90;;;;;;5072572;28;20056;-84
2023/09/19 03:48:21;;;;;;;9.85;6.43;;;22.60;99.90;;;;;;5074611;28;20056;-85
2023/09/19 03:50:47;;;;;;;10.15;6.70;;;22.50;99.90;;;;;;5073904;28;20020;-84
2023/09/19 03:53:13;;;;;;;10.75;6.10;;;22.40;99.90;;;;;;5072459;28;20024;-83
2023/09/19 03:55:39;;;;;;;19.88;7.43;;;22.40;99.90;;;;;;5076968;28;20119;-83
2023/09/19 03:58:05;;;;;;;10.75;7.00;;;;;;;;;;5068576;28;20028;-87
2023/09/19 04:00:32;;;;;;;14.05;7.50;;;;;;;;;;5073314;28;20017;-86
2023/09/19 04:02:58;;;;;;;13.93;6.60;;;;;;;;;;5078705;28;20051;-89
2023/09/19 04:05:24;;;;;;;9.35;6.10;;;;;;;;;;5073477;28;20017;-87
2023/09/19 04:07:51;;;;;;;10.00;5.88;;;;;;;;;;5087707;28;20520;-83
2023/09/19 04:10:17;;;;;;;11.02;6.60;;;;;;;;;;5084373;28;20040;-84
2023/09/19 04:12:53;;;;;;;15.95;6.78;;;;;;;;;;5085983;28;20078;-85
2023/09/19 04:15:19;;;;;;;11.07;6.40;;;;;;;;;;5079439;28;20028;-86
2023/09/19 04:17:45;;;;;;;15.05;6.45;;;;;;;;;;5090838;28;20024;-86
2023/09/19 04:20:15;;;;;;;18.60;7.65;;;;;;;;;;5074255;28;20531;-84
2023/09/19 04:22:42;;;;;;;13.43;6.57;;;;;;;;;;5092489;28;20024;-86
2023/09/19 04:25:08;;;;;;;11.68;5.85;;;22.20;99.90;;;;;;5093197;28;20054;-86
2023/09/19 04:27:34;;;;;;;9.10;6.20;;;22.40;99.90;;;;;;5076892;28;20033;-84
2023/09/19 04:30:00;;;;;;;11.40;6.70;;;22.30;99.90;;;;;;5072364;28;20055;-84
2023/09/19 04:32:29;;;;;;;10.85;6.50;;;22.30;99.90;;;;;;5072676;28;20032;-86
2023/09/19 04:34:59;;;;;;;17.27;6.53;;;22.30;99.90;;;;;;5080080;28;20024;-86
2023/09/19 04:37:26;;;;;;;14.48;6.63;;;22.20;99.90;;;;;;5092678;28;20035;-85
2023/09/19 04:39:51;;;;;;;14.05;6.93;;;22.20;99.90;;;;;;5092817;28;20129;-86
2023/09/19 04:42:17;;;;;;;13.02;6.85;;;22.20;99.90;;;;;;5092632;28;20086;-87
2023/09/19 04:44:43;;;;;;;13.77;6.85;;;22.20;99.90;;;;;;5092604;28;20024;-87
2023/09/19 04:47:09;;;;;;;18.58;7.60;;;22.20;99.90;;;;;;5092658;28;20499;-86
2023/09/19 04:49:35;;;;;;;17.90;7.65;;;22.20;99.90;;;;;;5092301;28;20139;-86
2023/09/19 04:52:00;;;;;;;11.98;7.20;;;22.20;99.90;;;;;;5092506;28;20028;-85
2023/09/19 04:54:33;;;;;;;15.68;7.50;;;22.20;99.90;;;;;;5092569;28;20055;-85
2023/09/19 04:57:00;;;;;;;11.23;6.30;;;22.20;99.90;;;;;;5088394;28;20028;-85
2023/09/19 04:59:29;;;;;;;15.55;6.78;;;22.20;99.90;;;;;;5073415;28;20078;-86
2023/09/19 05:01:55;;;;;;;14.45;6.45;;;22.20;99.90;;;;;;5072347;28;20060;-84
2023/09/19 05:04:21;;;;;;;13.88;6.25;;;22.20;99.90;;;;;;5072246;28;20386;-84
2023/09/19 05:06:47;;;;;;;11.40;6.53;;;22.30;99.90;;;;;;5071851;28;20538;-84
2023/09/19 05:09:34;;;;;;;13.75;6.57;;;;;;;;;;5073738;28;20123;-87
2023/09/19 05:12:10;;;;;;;16.35;7.00;;;;;;;;;;5072038;28;20043;-87
2023/09/19 05:14:59;;;;;;;13.50;6.10;;;;;;;;;;5072590;28;20036;-88
2023/09/19 05:17:26;;;;;;;11.93;6.55;;;;;;;;;;5072120;28;20033;-89
2023/09/19 05:19:52;;;;;;;12.25;6.85;;;;;;;;;;5071859;28;20120;-87
2023/09/19 05:22:32;;;;;;;18.92;6.88;;;;;;;;;;5072568;28;20551;-90
2023/09/19 05:25:24;;;;;;;11.98;6.97;;;;;;;;;;5076286;28;20024;-90
2023/09/19 05:33:57;;;;;;;15.57;6.18;;;;;;;;;;5082352;28;20031;-86
2023/09/19 05:36:30;;;;;;;12.15;6.55;;;;;;;;;;5074176;28;20039;-90
2023/09/19 05:38:56;;;;;;;14.02;6.57;;;;;;;;;;5074719;28;20109;-88
2023/09/19 05:41:23;;;;;;;17.25;6.63;;;;;;;;;;5075367;28;20028;-87
2023/09/19 05:43:50;;;;;;;18.73;7.18;;;;;;;;;;5094892;28;20498;-88
2023/09/19 05:46:17;;;;;;;10.93;6.47;;;;;;;;;;5094368;28;20028;-88
2023/09/19 05:48:44;;;;;;;11.57;6.28;;;;;;;;;;5094443;28;20040;-87
2023/09/19 05:51:10;;;;;;;19.80;7.20;;;;;;;;;;5094781;28;20144;-88
2023/09/19 05:53:36;;;;;;;10.43;6.57;;;;;;;;;;5094309;28;20044;-85
2023/09/19 05:56:02;;;;;;;11.63;6.78;;;;;;;;;;5094604;28;20020;-88
2023/09/19 05:58:29;;;;;;;13.02;7.25;;;;;;;;;;5077076;28;20036;-86
2023/09/19 06:00:55;;;;;;;15.40;7.20;;;;;;;;;;5075232;28;20463;-86
2023/09/19 06:03:21;;;;;;;15.38;7.32;;;;;;;;;;5074727;28;20029;-87
2023/09/19 06:05:49;;;;;;;16.08;7.45;;;;;;;;;;5092662;28;20020;-86
2023/09/19 06:08:15;;;;;;;16.42;7.70;;;22.50;99.90;;;;;;5090538;28;20111;-87
2023/09/19 06:10:41;;;;;;;26.40;8.75;;;22.60;99.90;;;;;;5075339;28;20063;-88
2023/09/19 06:13:09;;;;;;;16.13;7.85;;;22.60;99.90;;;;;;5083803;28;20035;-85
2023/09/19 06:15:35;;;;;;;17.17;8.55;;;22.60;99.90;;;;;;5095260;28;20367;-84
2023/09/19 06:18:02;;;;;;;16.92;9.00;;;22.60;99.90;;;;;;5095299;28;20050;-85
2023/09/19 06:20:28;;;;;;;23.52;8.77;;;22.70;99.90;;;;;;5090186;28;20020;-87
2023/09/19 06:22:54;;;;;;;20.80;7.47;;;22.80;99.90;;;;;;5074814;28;20078;-87
2023/09/19 06:25:23;;;;;;;15.70;7.32;;;;;;;;;;5075371;28;20033;-89
2023/09/19 06:27:52;;;;;;;16.88;7.80;;;22.90;99.90;;;;;;5074678;28;20024;-88
2023/09/19 06:30:29;;;;;;;;;;;;;;;;;;;;;
2023/09/19 06:32:56;;;;;;;18.48;8.18;;;;;;;;;;5074814;28;20039;-89
2023/09/19 06:35:32;;;;;;;17.95;8.02;;;;;;;;;;5074555;28;20033;-87
2023/09/19 06:38:13;;;;;;;17.45;7.20;;;;;;;;;;5074425;28;20086;-88
2023/09/19 07:28:16;;;;;;;12.45;6.22;;;;;;;;;;5071442;23;20411;-91
2023/09/19 10:39:02;;;;;;;27.73;6.00;;;;;;;;;;4983148;28;20030;-89
2023/09/19 10:41:44;;;;;;;30.85;6.35;;;;;;;;;;4979525;28;20369;-89
2023/09/19 10:44:25;;;;;;;24.80;6.07;;;;;;;;;;4978724;28;20031;-89
2023/09/19 10:46:58;;;;;;;28.88;5.13;;;;;;;;;;4976222;28;20031;-88
2023/09/19 10:49:25;;;;;;;22.08;5.78;;;;;;;;;;4959898;28;20035;-89
2023/09/19 10:51:58;;;;;;;21.95;6.00;;;;;;;;;;4959729;28;20029;-90
2023/09/19 10:54:28;;;;;;;25.88;5.53;;;;;;;;;;4977537;28;20457;-88
2023/09/19 10:56:56;;;;;;;25.30;6.10;;;;;;;;;;4975059;28;20480;-88
2023/09/19 10:59:24;;;;;;;21.10;5.78;;;;;;;;;;4994982;28;20030;-88
2023/09/19 11:01:56;;;;;;;21.17;5.70;;;;;;;;;;4963471;28;20034;-88
2023/09/19 11:04:26;;;;;;;23.27;6.85;;;;;;;;;;4978926;28;20385;-89
2023/09/19 11:07:11;;;;;;;26.80;6.82;;;;;;;;;;4978738;28;20034;-90
2023/09/19 11:10:04;;;;;;;25.00;6.82;;;;;;;;;;4978692;28;20129;-89
2023/09/19 11:12:45;;;;;;;34.03;6.38;;;;;;;;;;4882332;29;20077;-90
2023/09/19 11:15:33;;;;;;;34.03;7.75;;;;;;;;;;4900012;29;20028;-89
2023/09/19 11:18:04;;;;;;;29.30;7.30;;;;;;;;;;4896596;29;20033;-90
2023/09/19 11:20:41;;;;;;;32.72;6.38;;;;;;;;;;4881352;29;20025;-89
2023/09/19 11:23:07;;;;;;;18.80;5.20;;;;;;;;;;4881074;29;20032;-90
2023/09/19 11:25:47;;;;;;;27.70;6.88;;;;;;;;;;4879415;29;20044;-90
2023/09/19 11:28:31;;;;;;;21.45;5.10;;;;;;;;;;4878946;29;20064;-92
2023/09/19 11:30:58;;;;;;;28.08;4.35;;;;;;;;;;4897195;29;20488;-90
2023/09/19 11:33:35;;;;;;;22.48;5.30;;;;;;;;;;4893992;29;20425;-90
2023/09/19 11:36:04;;;;;;;25.73;4.40;;;;;;;;;;4902465;29;20037;-91
2023/09/19 11:38:50;;;;;;;25.88;4.93;;;;;;;;;;4901915;29;20128;-91
2023/09/19 11:41:29;;;;;;;29.02;8.00;;;;;;;;;;4917402;29;20024;-91
2023/09/19 11:44:10;;;;;;;29.27;7.18;;;;;;;;;;4908889;29;20035;-92
2023/09/19 11:51:39;;;;;;;23.40;4.72;;;;;;;;;;5023664;28;20502;-86
2023/09/19 11:54:21;;;;;;;24.63;4.97;;;;;;;;;;4930687;29;20049;-89
2023/09/19 11:57:06;;;;;;;24.23;5.95;;;;;;;;;;4929429;29;20477;-87
2023/09/19 11:59:47;;;;;;;20.58;5.43;;;;;;;;;;4948233;29;20028;-86
2023/09/19 12:08:23;;;;;;;20.17;4.68;;;;;;;;;;4916646;29;20059;-90
2023/09/19 12:10:52;;;;;;;26.85;5.47;;;;;;;;;;4950707;29;20058;-88
2023/09/19 12:13:19;;;;;;;22.55;5.13;;;;;;;;;;4950698;29;20019;-88
2023/09/19 12:16:00;;;;;;;22.10;4.57;;;;;;;;;;4950633;29;20047;-89
2023/09/19 12:18:42;;;;;;;26.95;4.53;;;;;;;;;;4950983;29;20094;-90
2023/09/19 12:21:12;;;;;;;15.93;3.45;;;;;;;;;;4939946;29;20505;-89
2023/09/19 12:24:05;;;;;;;21.60;4.57;;;;;;;;;;4930842;29;20035;-90
2023/09/19 12:27:05;;;;;;;;;;;;;;;;;;;;;
2023/09/19 12:29:55;;;;;;;17.88;3.60;;;;;;;;;;5032843;28;20034;-87
2023/09/19 12:35:55;;;;;;;10.38;3.08;;;;;;;;;;5046124;28;20049;-88
2023/09/19 12:38:43;;;;;;;28.88;3.40;;;;;;;;;;5031548;28;20524;-89
2023/09/19 12:41:25;;;;;;;17.10;3.08;;;;;;;;;;5031754;28;20109;-89
2023/09/19 12:45:00;;;;;;;22.17;4.20;;;;;;;;;;5091422;27;20466;-87
2023/09/19 12:47:49;;;;;;;20.00;3.63;;;;;;;;;;5090467;28;20123;-87
2023/09/19 12:50:29;;;;;;;18.08;3.20;;;;;;;;;;5086762;28;20050;-90
2023/09/19 12:53:00;;;;;;;16.17;3.88;;;;;;;;;;5090441;28;20018;-89
2023/09/19 12:55:49;;;;;;;18.90;3.67;;;;;;;;;;5106606;28;20033;-88
2023/09/19 17:03:36;;;;;;;;;;;;;;;;;;;;;
2023/09/19 18:18:15;;;;;;;14.20;3.70;;;23.60;78.30;;;;;;6277574;22;20006;-87
2023/09/19 18:20:48;;;;;;;10.15;3.65;;;23.50;79.00;;;;;;6275468;22;20320;-87
2023/09/19 18:23:15;;;;;;;20.70;5.10;;;23.50;79.00;;;;;;6275967;22;19996;-87
2023/09/19 18:25:49;;;;;;;15.25;4.35;;;23.50;79.40;;;;;;6276021;22;20362;-87
2023/09/19 18:31:46;;;;;;;19.15;5.20;;;23.40;80.20;;;;;;6154272;23;20438;-87
2023/09/19 18:37:48;;;;;;;16.95;5.18;;;23.30;81.40;;;;;;6037953;23;20071;-90
2023/09/19 18:40:14;;;;;;;12.00;5.13;;;23.30;81.50;;;;;;6013821;23;20385;-86
2023/09/19 18:42:40;;;;;;;12.52;5.28;;;23.20;82.60;;;;;;6014237;23;20451;-87
2023/09/19 18:45:12;;;;;;;15.85;5.40;;;23.20;83.20;;;;;;6013810;23;20039;-86
2023/09/19 18:47:38;;;;;;;16.60;6.72;;;23.20;83.50;;;;;;6013895;23;20011;-87
2023/09/19 18:50:05;;;;;;;20.67;9.00;;;23.10;83.60;;;;;;6014198;23;20046;-88
2023/09/19 18:53:00;;;;;;;30.52;14.25;;;23.10;84.30;;;;;;6014563;23;19999;-90
2023/09/19 18:55:36;;;;;;;32.15;12.38;;;23.10;84.00;;;;;;6013565;23;20007;-88
2023/09/19 18:58:03;;;;;;;16.67;3.60;;;23.00;84.20;;;;;;6013785;23;20034;-88
2023/09/19 19:00:29;;;;;;;11.02;2.58;;;22.90;84.20;;;;;;6013859;23;20094;-89
2023/09/19 19:02:55;;;;;;;13.13;2.47;;;22.90;85.30;;;;;;6013460;23;20071;-87
2023/09/19 19:06:02;;;;;;;12.20;2.38;;;22.80;87.40;;;;;;6013870;23;20088;-89
2023/09/19 19:08:28;;;;;;;10.82;2.00;;;22.70;89.20;;;;;;6105342;23;20009;-89
2023/09/19 19:17:37;;;;;;;13.07;2.47;;;22.30;92.00;;;;;;5110924;27;20419;-89
2023/09/19 19:20:06;;;;;;;9.50;2.38;;;22.20;93.00;;;;;;5109585;28;20020;-86
2023/09/19 19:22:43;;;;;;;13.10;2.70;;;22.20;94.10;;;;;;5126405;28;20027;-91
2023/09/19 19:25:12;;;;;;;14.85;2.90;;;22.10;95.10;;;;;;5109598;28;20392;-89
2023/09/19 19:27:40;;;;;;;16.23;3.90;;;22.10;95.50;;;;;;5126688;28;20027;-86
2023/09/19 19:30:11;;;;;;;13.10;2.72;;;22.10;97.30;;;;;;5109235;28;20020;-89
2023/09/19 19:32:37;;;;;;;5.97;2.20;;;22.00;98.30;;;;;;5109308;28;20035;-85
2023/09/19 19:35:04;;;;;;;13.25;3.08;;;21.90;99.30;;;;;;5108989;28;20028;-86
2023/09/19 19:37:33;;;;;;;12.25;2.78;;;21.90;99.90;;;;;;5110317;28;20432;-86
2023/09/19 19:40:03;;;;;;;9.77;2.58;;;21.90;99.90;;;;;;5126272;28;20032;-86
2023/09/19 19:42:38;;;;;;;9.48;1.90;;;21.90;99.90;;;;;;5108811;28;20028;-86
2023/09/19 19:45:13;;;;;;;11.13;2.30;;;21.90;99.90;;;;;;5108219;28;20034;-89
2023/09/19 19:47:39;;;;;;;8.90;2.85;;;21.80;99.90;;;;;;5107366;28;20028;-84
2023/09/19 20:51:36;;;;;;;8.50;1.83;;;;;;;;;;4899123;29;20694;-85
2023/09/19 21:04:48;;;;;;;;;;;;;;;;;;;;;
2023/09/19 21:19:55;;;;;;;6.05;2.95;;;20.50;99.90;;;;;;5108647;23;20067;-87
2023/09/19 21:22:23;;;;;;;8.73;2.95;;;20.50;99.90;;;;;;4938107;29;20039;-85
2023/09/19 21:24:50;;;;;;;8.38;2.28;;;20.40;99.90;;;;;;4941049;29;20082;-86
2023/09/19 21:27:17;;;;;;;10.63;2.70;;;20.50;99.90;;;;;;4939749;29;20514;-85
2023/09/19 21:29:43;;;;;;;9.48;2.42;;;20.50;99.90;;;;;;4939628;29;20027;-84
2023/09/19 21:32:09;;;;;;;10.23;2.50;;;20.50;99.90;;;;;;4919452;29;20044;-86
2023/09/19 21:34:35;;;;;;;8.32;2.30;;;20.50;99.90;;;;;;4913661;29;20119;-86
2023/09/19 21:37:01;;;;;;;8.55;2.55;;;20.50;99.90;;;;;;4914321;29;20044;-85
2023/09/19 21:39:28;;;;;;;10.85;2.30;;;20.50;99.90;;;;;;4916093;29;20771;-86
2023/09/19 21:41:54;;;;;;;6.18;2.10;;;20.50;99.90;;;;;;4908443;29;20058;-85
2023/09/19 21:44:20;;;;;;;9.38;2.78;;;20.50;99.90;;;;;;4901712;29;20032;-85
2023/09/19 21:46:45;;;;;;;7.80;1.92;;;20.50;99.90;;;;;;4924662;29;20035;-87
2023/09/19 21:49:14;;;;;;;7.18;2.40;;;20.50;99.90;;;;;;4912321;29;20032;-86
2023/09/19 21:51:40;;;;;;;7.80;2.50;;;20.40;99.90;;;;;;4903187;29;20036;-85
2023/09/19 21:54:06;;;;;;;12.45;2.22;;;20.40;99.90;;;;;;4928561;28;20132;-82
2023/09/19 21:56:31;;;;;;;5.28;1.65;;;20.40;99.90;;;;;;4917690;29;20043;-83
2023/09/19 21:58:58;;;;;;;6.13;1.50;;;20.40;99.90;;;;;;4929609;29;20035;-82
2023/09/19 22:01:27;;;;;;;8.73;2.08;;;20.40;99.90;;;;;;4900441;29;20484;-83
2023/09/19 22:03:54;;;;;;;3.90;2.10;;;20.30;99.90;;;;;;4915779;29;20127;-84
2023/09/19 22:06:23;;;;;;;9.00;2.90;;;20.30;99.90;;;;;;4916527;29;20032;-83
2023/09/19 22:08:53;;;;;;;6.05;1.90;;;20.30;99.90;;;;;;4925021;29;20031;-85
2023/09/19 22:11:20;;;;;;;7.05;1.88;;;20.30;99.90;;;;;;4938859;29;20035;-83
2023/09/19 22:13:46;;;;;;;10.40;3.45;;;20.40;99.90;;;;;;4944451;29;20122;-85
2023/09/19 22:16:15;;;;;;;4.85;2.30;;;20.40;99.90;;;;;;4939014;29;20037;-86
2023/09/19 22:18:45;;;;;;;11.70;2.33;;;20.40;99.90;;;;;;4939707;29;20142;-83
2023/09/19 22:21:12;;;;;;;5.88;1.63;;;20.40;99.90;;;;;;4955432;29;20418;-83
2023/09/19 22:23:45;;;;;;;9.25;2.20;;;20.40;99.90;;;;;;4954798;28;20034;-83
2023/09/19 22:26:14;;;;;;;5.93;1.50;;;20.40;99.90;;;;;;4969114;28;20537;-82
2023/09/19 22:28:41;;;;;;;6.45;2.00;;;20.30;99.90;;;;;;4961944;28;20035;-84
2023/09/19 22:31:21;;;;;;;8.30;2.22;;;20.40;99.90;;;;;;4954674;28;20027;-84
2023/09/19 22:33:50;;;;;;;9.95;1.67;;;20.40;99.90;;;;;;4955146;28;20062;-83
2023/09/19 22:39:24;;;;;;;5.88;1.67;;;20.50;99.90;;;;;;4934343;29;20040;-84
2023/09/19 22:41:50;;;;;;;9.52;2.08;;;20.50;99.90;;;;;;4934483;29;20052;-83
2023/09/19 22:44:16;;;;;;;7.68;2.05;;;20.50;99.90;;;;;;4934339;29;20064;-86
2023/09/19 22:46:43;;;;;;;7.68;1.88;;;20.50;99.90;;;;;;4934275;29;20043;-86
2023/09/19 22:49:16;;;;;;;4.28;1.52;;;20.50;99.90;;;;;;4934463;29;20142;-85
2023/09/19 22:51:49;;;;;;;8.45;1.63;;;20.40;99.90;;;;;;4933978;29;20071;-84
2023/09/19 22:54:17;;;;;;;13.27;1.88;;;20.40;99.90;;;;;;4917530;29;20091;-83
2023/09/19 22:56:43;;;;;;;5.72;1.85;;;20.40;99.90;;;;;;4910833;29;20043;-84
2023/09/19 22:59:09;;;;;;;12.75;2.03;;;20.40;99.90;;;;;;4926182;29;20047;-85
2023/09/19 23:06:39;;;;;;;5.90;2.03;;;20.40;99.90;;;;;;4934070;29;20039;-82
2023/09/19 23:09:08;;;;;;;5.45;2.28;;;20.40;99.90;;;;;;4932813;29;20040;-84
2023/09/19 23:11:34;;;;;;;9.25;1.70;;;20.40;99.90;;;;;;4915208;29;20070;-84
2023/09/19 23:14:07;;;;;;;5.00;1.73;;;20.30;99.90;;;;;;4935812;29;20051;-85
2023/09/19 23:16:33;;;;;;;3.83;2.05;;;20.40;99.90;;;;;;4953893;28;20130;-84
2023/09/19 23:19:12;;;;;;;14.98;2.13;;;20.30;99.90;;;;;;4953156;28;20143;-83
2023/09/19 23:21:44;;;;;;;10.38;3.33;;;20.30;99.90;;;;;;4961416;28;20114;-84
2023/09/19 23:24:10;;;;;;;;;;;20.40;99.90;;;;;;4963570;28;20031;-84
2023/09/19 23:26:36;;;;;;;6.47;2.78;;;20.40;99.90;;;;;;4966488;28;19917;-85
2023/09/19 23:29:03;;;;;;;13.25;3.42;;;20.40;99.90;;;;;;4953998;28;20028;-85
2023/09/19 23:31:29;;;;;;;9.55;3.65;;;20.40;99.90;;;;;;4955746;29;20031;-86
2023/09/19 23:33:55;;;;;;;9.00;2.05;;;20.40;99.90;;;;;;4953989;29;20029;-85
2023/09/19 23:36:21;;;;;;;6.97;2.20;;;20.40;99.90;;;;;;4963104;28;20046;-85
2023/09/19 23:38:46;;;;;;;8.88;2.67;;;20.40;99.90;;;;;;4974796;28;20031;-82
2023/09/19 23:41:20;;;;;;;10.15;3.50;;;20.40;99.90;;;;;;4954011;28;20504;-83
2023/09/19 23:43:52;;;;;;;7.95;4.72;;;20.40;99.90;;;;;;4954162;28;20035;-85
2023/09/19 23:46:18;;;;;;;14.57;5.82;;;20.40;99.90;;;;;;4954117;28;20039;-84
2023/09/19 23:48:44;;;;;;;12.35;5.85;;;20.30;99.90;;;;;;4953905;28;20082;-83
2023/09/19 23:51:11;;;;;;;16.17;5.45;;;20.30;99.90;;;;;;4954970;29;20067;-84
2023/09/19 23:53:36;;;;;;;10.07;4.25;;;20.20;99.90;;;;;;4954145;29;20054;-85
2023/09/19 23:56:05;;;;;;;11.27;6.22;;;20.20;99.90;;;;;;4953261;28;20490;-83
2023/09/19 23:58:31;;;;;;;15.02;7.70;;;20.10;99.90;;;;;;4966464;28;20035;-84
